Time,TemperatureF,DewpointF,PressureIn,WindDirection,WindDirectionDegrees,WindSpeedMPH,WindSpeedGustMPH,Humidity,HourlyPrecipIn,Conditions,Clouds,dailyrainin,SolarRadiationWatts/m^2,SoftwareType,DateUTC
2013-01-17 00:29:00,30.2,29.7,29.83,South,186,0.0,4.0,98,0.00,CLR,,0.14,0.0,WeatherDisplay:10.37,2013-01-17 05:29:00,
2013-01-17 00:59:00,30.1,29.6,29.84,SSW,200,0.0,3.0,98,0.00,CLR,,0.14,0.0,WeatherDisplay:10.37,2013-01-17 05:59:00,
2013-01-17 01:29:00,29.7,29.2,29.84,SSW,200,0.0,1.0,98,0.00,CLR,,0.14,0.0,WeatherDisplay:10.37,2013-01-17 06:29:00,
2013-01-17 01:59:00,29.2,28.7,29.86,South,188,1.0,3.0,98,0.00,RA,,0.00,0.0,WeatherDisplay:10.37,2013-01-17 06:59:00,
2013-01-17 02:29:00,29.1,28.6,29.85,South,187,0.0,3.0,98,0.00,CLR,,0.00,0.0,WeatherDisplay:10.37,2013-01-17 07:29:00,
2013-01-17 02:59:00,28.9,28.4,29.86,South,186,0.0,1.0,98,0.00,CLR,,0.00,0.0,WeatherDisplay:10.37,2013-01-17 07:59:00,
2013-01-17 03:29:00,28.8,28.3,29.84,South,186,0.0,3.0,98,0.00,CLR,,0.00,0.0,WeatherDisplay:10.37,2013-01-17 08:29:00,
2013-01-17 03:59:00,28.2,27.7,29.84,South,186,0.0,3.0,98,0.00,CLR,,0.00,0.0,WeatherDisplay:10.37,2013-01-17 08:59:00,
2013-01-17 04:29:00,28.7,28.2,29.84,South,182,0.0,4.0,98,0.00,CLR,,0.00,0.0,WeatherDisplay:10.37,2013-01-17 09:29:00,
2013-01-17 04:59:00,28.5,28.0,29.83,South,180,0.0,3.0,98,0.00,CLR,,0.00,0.0,WeatherDisplay:10.37,2013-01-17 09:59:00,
2013-01-17 05:29:00,28.4,27.9,29.84,South,180,0.0,4.0,98,0.00,CLR,,0.00,0.0,WeatherDisplay:10.37,2013-01-17 10:29:00,
2013-01-17 05:59:00,28.1,27.6,29.85,South,180,0.0,4.0,98,0.00,CLR,,0.00,0.0,WeatherDisplay:10.37,2013-01-17 10:59:00,
2013-01-17 06:29:00,27.4,26.9,29.86,South,179,0.0,2.0,98,0.00,CLR,,0.00,0.0,WeatherDisplay:10.37,2013-01-17 11:29:00,
2013-01-17 06:59:00,26.8,26.3,29.87,South,179,0.0,1.0,98,0.00,OVC,,0.00,0.0,WeatherDisplay:10.37,2013-01-17 11:59:00,
2013-01-17 07:29:00,26.4,25.9,29.89,South,180,0.0,2.0,98,0.00,BKN,,0.00,14.0,WeatherDisplay:10.37,2013-01-17 12:29:00,
2013-01-17 07:59:00,26.9,26.4,29.92,South,180,0.0,2.0,98,0.00,CLR,,0.00,151.0,WeatherDisplay:10.37,2013-01-17 12:59:00,
2013-01-17 08:29:00,28.0,27.5,29.92,South,180,0.0,2.0,98,0.00,CLR,,0.00,237.0,WeatherDisplay:10.37,2013-01-17 13:29:00,
2013-01-17 08:59:00,30.0,29.7,29.94,South,180,0.0,2.0,99,0.00,CLR,,0.00,285.0,WeatherDisplay:10.37,2013-01-17 13:59:00,
2013-01-17 09:29:00,31.6,31.3,29.94,South,172,0.0,4.0,99,0.00,FEW,,0.00,202.0,WeatherDisplay:10.37,2013-01-17 14:29:00,
2013-01-17 09:59:00,32.7,32.4,29.95,South,171,0.0,4.0,99,0.00,FEW,,0.00,251.0,WeatherDisplay:10.37,2013-01-17 14:59:00,
2013-01-17 10:29:00,33.9,33.4,29.95,South,178,1.0,5.0,98,0.00,CLR,,0.00,489.0,WeatherDisplay:10.37,2013-01-17 15:29:00,
2013-01-17 10:59:00,35.3,33.8,29.95,SSE,158,0.0,7.0,94,0.00,CLR,,0.00,411.0,WeatherDisplay:10.37,2013-01-17 15:59:00,
2013-01-17 11:29:00,36.5,33.6,29.95,SSW,208,1.0,6.0,89,0.01,RA,,0.01,385.0,WeatherDisplay:10.37,2013-01-17 16:29:00,
2013-01-17 11:59:00,37.3,34.1,29.95,West,259,1.0,12.0,88,0.00,FEW,,0.01,492.0,WeatherDisplay:10.37,2013-01-17 16:59:00,
2013-01-17 12:29:00,38.0,33.9,29.94,WSW,248,1.0,8.0,85,0.00,SCT,,0.01,197.0,WeatherDisplay:10.37,2013-01-17 17:29:00,
2013-01-17 12:59:00,38.5,33.5,29.94,WSW,256,1.0,7.0,82,0.00,FEW,,0.01,178.0,WeatherDisplay:10.37,2013-01-17 17:59:00,
2013-01-17 13:29:00,39.3,32.4,29.94,West,272,2.0,13.0,76,0.00,CLR,,0.01,243.0,WeatherDisplay:10.37,2013-01-17 18:29:00,
2013-01-17 13:59:00,39.8,31.8,29.96,West,278,5.0,12.0,73,0.00,CLR,,0.01,232.0,WeatherDisplay:10.37,2013-01-17 18:59:00,
2013-01-17 14:29:00,39.3,30.7,29.97,West,273,2.0,12.0,71,0.00,SCT,,0.01,123.0,WeatherDisplay:10.37,2013-01-17 19:29:00,
2013-01-17 14:59:00,39.4,30.1,29.98,West,260,3.0,7.0,69,0.00,SCT,,0.01,123.0,WeatherDisplay:10.37,2013-01-17 19:59:00,
2013-01-17 15:29:00,39.3,29.6,30.00,WNW,300,1.0,9.0,68,0.00,SCT,,0.01,63.0,WeatherDisplay:10.37,2013-01-17 20:29:00,
2013-01-17 15:59:00,37.6,29.4,30.01,WNW,292,2.0,13.0,72,0.00,SCT,,0.01,39.0,WeatherDisplay:10.37,2013-01-17 20:59:00,
2013-01-17 16:29:00,36.0,28.1,30.01,NW,313,1.0,9.0,73,0.00,CLR,,0.01,12.0,WeatherDisplay:10.37,2013-01-17 21:29:00,
2013-01-17 16:59:00,34.8,27.7,30.02,NNW,329,0.0,8.0,75,0.00,CLR,,0.01,0.0,WeatherDisplay:10.37,2013-01-17 21:59:00,
2013-01-17 17:29:00,34.4,27.3,30.04,NW,304,0.0,5.0,75,0.00,CLR,,0.01,0.0,WeatherDisplay:10.37,2013-01-17 22:29:00,
2013-01-17 17:59:00,34.0,26.9,30.05,NW,316,1.0,6.0,75,0.00,CLR,,0.01,0.0,WeatherDisplay:10.37,2013-01-17 22:59:00,
2013-01-17 18:29:00,33.7,26.0,30.06,WNW,297,1.0,7.0,73,0.00,CLR,,0.01,0.0,WeatherDisplay:10.37,2013-01-17 23:29:00,
2013-01-17 18:59:00,33.0,23.6,30.09,WNW,288,2.0,7.0,68,0.00,CLR,,0.01,0.0,WeatherDisplay:10.37,2013-01-17 23:59:00,
2013-01-17 19:29:00,32.3,23.0,30.07,WNW,287,1.0,10.0,68,0.00,CLR,,0.01,0.0,WeatherDisplay:10.37,2013-01-18 00:29:00,
2013-01-17 19:59:00,31.5,21.8,30.09,WNW,288,1.0,6.0,67,0.00,CLR,,0.01,0.0,WeatherDisplay:10.37,2013-01-18 00:59:00,
2013-01-17 20:29:00,30.8,20.8,30.09,NW,306,3.0,10.0,66,0.00,CLR,,0.01,0.0,WeatherDisplay:10.37,2013-01-18 01:29:00,
2013-01-17 21:00:00,30.1,19.7,30.07,WNW,296,1.0,12.0,65,0.00,CLR,,0.01,0.0,WeatherDisplay:10.37,2013-01-18 02:00:00,
2013-01-17 21:30:00,29.6,20.0,30.08,NNW,342,0.0,6.0,67,0.00,CLR,,0.01,0.0,WeatherDisplay:10.37,2013-01-18 02:30:00,
2013-01-17 22:00:00,29.3,19.0,30.09,WNW,293,1.0,6.0,65,0.00,CLR,,0.01,0.0,WeatherDisplay:10.37,2013-01-18 03:00:00,
2013-01-17 22:30:00,29.0,18.3,30.06,NW,308,1.0,8.0,64,0.00,CLR,,0.01,0.0,WeatherDisplay:10.37,2013-01-18 03:30:00,
2013-01-17 23:00:00,28.7,16.6,30.09,WNW,302,1.0,10.0,60,0.00,CLR,,0.01,0.0,WeatherDisplay:10.37,2013-01-18 04:00:00,
2013-01-17 23:30:00,28.0,15.1,30.07,WNW,285,2.0,12.0,58,0.00,CLR,,0.01,0.0,WeatherDisplay:10.37,2013-01-18 04:30:00,